createdAt,value
2023-04-02T00:00:03.267Z,1005.9
2023-04-02T00:01:02.268Z,1005.9
2023-04-02T00:02:02.132Z,1005.9
2023-04-02T00:03:02.637Z,1005.9
2023-04-02T00:04:02.539Z,1006
2023-04-02T00:05:02.362Z,1006
2023-04-02T00:06:02.470Z,1005.9
2023-04-02T00:07:02.424Z,1005.9
2023-04-02T00:08:02.546Z,1006
2023-04-02T00:09:02.444Z,1005.9
2023-04-02T00:10:02.378Z,1005.9
2023-04-02T00:11:02.539Z,1006
2023-04-02T00:12:02.428Z,1006
2023-04-02T00:13:02.284Z,1005.9
2023-04-02T00:14:02.393Z,1006
2023-04-02T00:15:02.356Z,1006
2023-04-02T00:16:02.315Z,1006
2023-04-02T00:17:02.549Z,1006
2023-04-02T00:18:02.729Z,1006
2023-04-02T00:19:02.558Z,1006
2023-04-02T00:20:02.611Z,1006.1
2023-04-02T00:21:02.496Z,1006
2023-04-02T00:22:02.586Z,1006.1
2023-04-02T00:23:02.463Z,1006
2023-04-02T00:24:02.509Z,1006.1
2023-04-02T00:25:02.442Z,1006.1
2023-04-02T00:26:02.572Z,1006.1
2023-04-02T00:27:02.447Z,1006.1
2023-04-02T00:28:02.584Z,1006.1
2023-04-02T00:29:02.511Z,1006.1
2023-04-02T00:30:02.587Z,1006.1
2023-04-02T00:31:02.490Z,1006.1
2023-04-02T00:32:02.709Z,1006.1
2023-04-02T00:33:01.878Z,1006.1
2023-04-02T00:34:02.744Z,1006.1
2023-04-02T00:35:02.612Z,1006.1
2023-04-02T00:36:02.857Z,1006.1
2023-04-02T00:37:02.647Z,1006.1
2023-04-02T00:38:02.741Z,1006.1
2023-04-02T00:39:02.629Z,1006.1
2023-04-02T00:40:02.788Z,1006.1
2023-04-02T00:41:02.603Z,1006
2023-04-02T00:42:02.660Z,1006.1
2023-04-02T00:43:02.566Z,1006.1
2023-04-02T00:44:02.628Z,1006.1
2023-04-02T00:45:02.541Z,1006
2023-04-02T00:46:02.802Z,1006.1
2023-04-02T00:48:01.925Z,1006.1
2023-04-02T00:49:01.719Z,1006.1
2023-04-02T00:50:01.872Z,1006.1
2023-04-02T00:51:01.766Z,1006.1
2023-04-02T00:52:01.887Z,1006.1
2023-04-02T00:53:01.693Z,1006.1
2023-04-02T00:54:01.809Z,1006.2
2023-04-02T00:55:01.675Z,1006.2
2023-04-02T00:56:01.746Z,1006
2023-04-02T00:57:03.052Z,1006.2
2023-04-02T00:58:01.724Z,1006.1
2023-04-02T00:59:01.842Z,1006.1
2023-04-02T01:00:02.991Z,1006.2
2023-04-02T01:01:01.956Z,1006.1
2023-04-02T01:02:02.568Z,1006.1
2023-04-02T01:03:02.841Z,1006.2
2023-04-02T01:04:02.953Z,1006.2
2023-04-02T01:05:01.826Z,1006.2
2023-04-02T01:06:01.859Z,1006.2
2023-04-02T01:07:02.742Z,1006.2
2023-04-02T01:08:02.639Z,1006.3
2023-04-02T01:09:03.064Z,1006.3
2023-04-02T01:10:01.811Z,1006.3
2023-04-02T01:11:01.768Z,1006.3
2023-04-02T01:12:01.663Z,1006.2
2023-04-02T01:13:01.764Z,1006.3
2023-04-02T01:14:01.672Z,1006.3
2023-04-02T01:15:01.700Z,1006.3
2023-04-02T01:16:02.833Z,1006.3
2023-04-02T01:18:02.088Z,1006.3
2023-04-02T01:19:01.839Z,1006.3
2023-04-02T01:20:01.926Z,1006.4
2023-04-02T01:21:01.768Z,1006.3
2023-04-02T01:22:01.855Z,1006.3
2023-04-02T01:23:01.681Z,1006.3
2023-04-02T01:24:01.834Z,1006.3
2023-04-02T01:25:01.648Z,1006.3
2023-04-02T01:26:01.728Z,1006.3
2023-04-02T01:27:02.786Z,1006.3
2023-04-02T01:28:02.640Z,1006.3
2023-04-02T01:29:02.744Z,1006.2
2023-04-02T01:30:02.717Z,1006.3
2023-04-02T01:31:02.882Z,1006.3
2023-04-02T01:33:02.067Z,1006.3
2023-04-02T01:34:01.800Z,1006.3
2023-04-02T01:35:01.831Z,1006.4
2023-04-02T01:36:02.011Z,1006.3
2023-04-02T01:37:01.870Z,1006.4
2023-04-02T01:38:01.838Z,1006.3
2023-04-02T01:39:01.812Z,1006.4
2023-04-02T01:40:01.644Z,1006.4
2023-04-02T01:41:02.835Z,1006.3
2023-04-02T01:42:02.584Z,1006.3
2023-04-02T01:43:02.729Z,1006.3
2023-04-02T01:44:01.623Z,1006.4
2023-04-02T01:45:02.698Z,1006.4
2023-04-02T01:46:01.630Z,1006.4
2023-04-02T01:47:02.023Z,1006.4
2023-04-02T01:48:02.229Z,1006.4
2023-04-02T01:49:01.968Z,1006.4
2023-04-02T01:50:02.074Z,1006.4
2023-04-02T01:51:01.862Z,1006.3
2023-04-02T01:52:01.926Z,1006.4
2023-04-02T01:53:01.796Z,1006.4
2023-04-02T01:54:01.860Z,1006.3
2023-04-02T01:55:01.740Z,1006.4
2023-04-02T01:56:01.832Z,1006.4
2023-04-02T01:57:01.865Z,1006.4
2023-04-02T01:58:01.811Z,1006.4
2023-04-02T01:59:01.688Z,1006.4
2023-04-02T02:00:02.466Z,1006.4
2023-04-02T02:01:02.566Z,1006.4
2023-04-02T02:03:02.076Z,1006.4
2023-04-02T02:04:01.998Z,1006.5
2023-04-02T02:05:01.912Z,1006.4
2023-04-02T02:06:01.868Z,1006.4
2023-04-02T02:07:01.932Z,1006.4
2023-04-02T02:08:01.813Z,1006.5
2023-04-02T02:09:01.873Z,1006.5
2023-04-02T02:10:01.777Z,1006.4
2023-04-02T02:11:02.698Z,1006.5
2023-04-02T02:12:01.627Z,1006.5
2023-04-02T02:13:02.632Z,1006.5
2023-04-02T02:14:02.632Z,1006.5
2023-04-02T02:15:02.631Z,1006.6
2023-04-02T02:16:02.759Z,1006.6
2023-04-02T02:18:02.366Z,1006.5
2023-04-02T02:19:02.072Z,1006.6
2023-04-02T02:20:02.319Z,1006.6
2023-04-02T02:21:02.083Z,1006.6
2023-04-02T02:22:02.111Z,1006.6
2023-04-02T02:23:01.985Z,1006.5
2023-04-02T02:24:02.099Z,1006.5
2023-04-02T02:25:01.943Z,1006.5
2023-04-02T02:26:01.971Z,1006.5
2023-04-02T02:27:01.903Z,1006.5
2023-04-02T02:28:01.882Z,1006.6
2023-04-02T02:29:01.721Z,1006.6
2023-04-02T02:30:01.796Z,1006.5
2023-04-02T02:31:01.727Z,1006.5
2023-04-02T02:32:02.125Z,1006.6
2023-04-02T02:33:02.081Z,1006.5
2023-04-02T02:34:01.821Z,1006.6
2023-04-02T02:35:01.919Z,1006.6
2023-04-02T02:36:01.903Z,1006.5
2023-04-02T02:37:01.890Z,1006.6
2023-04-02T02:38:01.803Z,1006.6
2023-04-02T02:39:01.867Z,1006.5
2023-04-02T02:40:01.729Z,1006.6
2023-04-02T02:41:01.768Z,1006.6
2023-04-02T02:42:01.625Z,1006.6
2023-04-02T02:43:02.664Z,1006.6
2023-04-02T02:44:02.783Z,1006.6
2023-04-02T02:45:02.712Z,1006.6
2023-04-02T02:46:02.709Z,1006.7
2023-04-02T02:48:01.924Z,1006.6
2023-04-02T02:49:02.836Z,1006.7
2023-04-02T02:50:01.735Z,1006.7
2023-04-02T02:51:02.676Z,1006.7
2023-04-02T02:52:02.610Z,1006.7
2023-04-02T02:53:02.579Z,1006.7
2023-04-02T02:54:02.459Z,1006.7
2023-04-02T02:55:02.628Z,1006.8
2023-04-02T02:56:02.377Z,1006.7
2023-04-02T02:57:02.488Z,1006.8
2023-04-02T02:58:02.351Z,1006.7
2023-04-02T02:59:02.233Z,1006.8
2023-04-02T03:00:02.248Z,1006.8
2023-04-02T03:01:02.254Z,1006.8
2023-04-02T03:02:02.319Z,1006.9
2023-04-02T03:03:02.695Z,1006.8
2023-04-02T03:04:02.726Z,1006.8
2023-04-02T03:05:02.433Z,1006.8
2023-04-02T03:06:02.573Z,1006.8
2023-04-02T03:07:02.356Z,1006.8
2023-04-02T03:08:02.453Z,1006.9
2023-04-02T03:09:02.343Z,1006.9
2023-04-02T03:10:02.190Z,1006.8
2023-04-02T03:11:02.226Z,1006.9
2023-04-02T03:12:02.254Z,1006.8
2023-04-02T03:13:02.019Z,1006.9
2023-04-02T03:14:02.083Z,1006.8
2023-04-02T03:15:02.017Z,1006.9
2023-04-02T03:16:02.184Z,1006.9
2023-04-02T03:17:02.258Z,1007
2023-04-02T03:18:02.401Z,1006.9
2023-04-02T03:19:02.204Z,1007
2023-04-02T03:20:02.058Z,1007
2023-04-02T03:21:02.079Z,1006.9
2023-04-02T03:22:01.922Z,1006.9
2023-04-02T03:23:01.967Z,1006.9
2023-04-02T03:24:01.809Z,1007
2023-04-02T03:25:01.886Z,1006.9
2023-04-02T03:26:01.694Z,1006.9
2023-04-02T03:27:01.727Z,1006.9
2023-04-02T03:28:02.779Z,1007
2023-04-02T03:29:02.555Z,1007
2023-04-02T03:30:02.625Z,1007
2023-04-02T03:31:02.633Z,1007
2023-04-02T03:33:01.879Z,1007
2023-04-02T03:34:02.689Z,1007
2023-04-02T03:35:02.631Z,1007
2023-04-02T03:36:02.837Z,1007
2023-04-02T03:37:02.566Z,1007
2023-04-02T03:38:02.624Z,1007
2023-04-02T03:39:02.495Z,1007
2023-04-02T03:40:02.558Z,1007
2023-04-02T03:41:02.366Z,1007
2023-04-02T03:42:02.399Z,1007.1
2023-04-02T03:43:02.360Z,1007.1
2023-04-02T03:44:02.222Z,1007.1
2023-04-02T03:45:02.289Z,1007.1
2023-04-02T03:46:02.381Z,1007.2
2023-04-02T03:47:02.360Z,1007.1
2023-04-02T03:48:02.598Z,1007.2
2023-04-02T03:49:02.416Z,1007.2
2023-04-02T03:50:02.222Z,1007.2
2023-04-02T03:51:02.297Z,1007.1
2023-04-02T03:52:02.036Z,1007.2
2023-04-02T03:53:02.111Z,1007.2
2023-04-02T03:54:02.022Z,1007.2
2023-04-02T03:55:02.131Z,1007.2
2023-04-02T03:56:01.922Z,1007.2
2023-04-02T03:57:02.115Z,1007.2
2023-04-02T03:58:01.821Z,1007.2
2023-04-02T03:59:01.826Z,1007.2
2023-04-02T04:00:02.102Z,1007.2
2023-04-02T04:01:02.023Z,1007.2
2023-04-02T04:02:01.906Z,1007.2
2023-04-02T04:03:02.070Z,1007.2
2023-04-02T04:04:01.975Z,1007.3
2023-04-02T04:05:01.838Z,1007.3
2023-04-02T04:06:01.661Z,1007.3
2023-04-02T04:07:01.738Z,1007.3
2023-04-02T04:08:02.688Z,1007.3
2023-04-02T04:09:02.542Z,1007.3
2023-04-02T04:10:02.601Z,1007.3
2023-04-02T04:11:02.602Z,1007.4
2023-04-02T04:12:02.563Z,1007.3
2023-04-02T04:13:02.474Z,1007.4
2023-04-02T04:14:02.500Z,1007.4
2023-04-02T04:15:02.407Z,1007.3
2023-04-02T04:16:02.451Z,1007.4
2023-04-02T04:18:02.225Z,1007.5
2023-04-02T04:19:02.084Z,1007.4
2023-04-02T04:20:02.174Z,1007.5
2023-04-02T04:21:02.055Z,1007.5
2023-04-02T04:22:02.146Z,1007.5
2023-04-02T04:23:02.026Z,1007.5
2023-04-02T04:24:02.048Z,1007.5
2023-04-02T04:25:01.908Z,1007.5
2023-04-02T04:26:02.059Z,1007.6
2023-04-02T04:27:01.829Z,1007.5
2023-04-02T04:28:01.861Z,1007.6
2023-04-02T04:29:01.689Z,1007.5
2023-04-02T04:30:01.775Z,1007.6
2023-04-02T04:31:01.665Z,1007.6
2023-04-02T04:32:02.099Z,1007.6
2023-04-02T04:33:02.083Z,1007.6
2023-04-02T04:34:01.794Z,1007.6
2023-04-02T04:35:01.811Z,1007.6
2023-04-02T04:36:01.752Z,1007.6
2023-04-02T04:37:02.750Z,1007.6
2023-04-02T04:38:02.615Z,1007.6
2023-04-02T04:39:02.617Z,1007.7
2023-04-02T04:40:02.550Z,1007.6
2023-04-02T04:41:02.586Z,1007.7
2023-04-02T04:42:02.447Z,1007.7
2023-04-02T04:43:02.503Z,1007.7
2023-04-02T04:44:02.395Z,1007.7
2023-04-02T04:45:02.464Z,1007.7
2023-04-02T04:46:02.522Z,1007.7
2023-04-02T04:47:02.629Z,1007.7
2023-04-02T04:48:02.867Z,1007.8
2023-04-02T04:49:02.654Z,1007.8
2023-04-02T04:50:02.591Z,1007.8
2023-04-02T04:51:02.512Z,1007.8
2023-04-02T04:52:02.592Z,1007.8
2023-04-02T04:53:02.538Z,1007.8
2023-04-02T04:54:02.628Z,1007.8
2023-04-02T04:55:02.474Z,1007.8
2023-04-02T04:56:20.064Z,1007.9
2023-04-02T04:57:01.847Z,1007.9
2023-04-02T04:58:01.776Z,1007.8
2023-04-02T04:59:01.598Z,1007.9
2023-04-02T05:00:02.678Z,1007.9
2023-04-02T05:01:02.511Z,1007.9
2023-04-02T05:03:02.143Z,1007.9
2023-04-02T05:04:01.918Z,1007.9
2023-04-02T05:05:02.178Z,1007.9
2023-04-02T05:06:01.952Z,1008
2023-04-02T05:07:02.027Z,1008
2023-04-02T05:08:01.882Z,1008
2023-04-02T05:09:01.875Z,1008
2023-04-02T05:10:01.763Z,1008
2023-04-02T05:11:01.735Z,1008
2023-04-02T05:12:02.734Z,1008.1
2023-04-02T05:13:02.608Z,1008.1
2023-04-02T05:14:02.764Z,1008
2023-04-02T05:15:02.691Z,1008.1
2023-04-02T05:16:02.848Z,1008
2023-04-02T05:18:02.157Z,1008.2
2023-04-02T05:19:01.801Z,1008.1
2023-04-02T05:20:01.892Z,1008.2
2023-04-02T05:21:01.685Z,1008.2
2023-04-02T05:22:01.758Z,1008.2
2023-04-02T05:23:02.695Z,1008.2
2023-04-02T05:24:02.594Z,1008.2
2023-04-02T05:25:02.797Z,1008.2
2023-04-02T05:26:02.611Z,1008.2
2023-04-02T05:27:02.665Z,1008.2
2023-04-02T05:28:02.539Z,1008.3
2023-04-02T05:29:02.595Z,1008.3
2023-04-02T05:30:02.636Z,1008.3
2023-04-02T05:31:02.849Z,1008.3
2023-04-02T05:33:01.980Z,1008.3
2023-04-02T05:34:01.709Z,1008.3
2023-04-02T05:35:01.774Z,1008.4
2023-04-02T05:36:02.805Z,1008.3
2023-04-02T05:37:07.160Z,1008.4
2023-04-02T05:38:01.905Z,1008.4
2023-04-02T05:39:01.964Z,1008.4
2023-04-02T05:40:01.855Z,1008.4
2023-04-02T05:41:01.878Z,1008.5
2023-04-02T05:42:01.717Z,1008.5
2023-04-02T05:43:01.802Z,1008.5
2023-04-02T05:44:01.669Z,1008.5
2023-04-02T05:45:02.964Z,1008.6
2023-04-02T05:46:01.635Z,1008.6
2023-04-02T05:47:01.833Z,1008.5
2023-04-02T05:48:02.432Z,1008.6
2023-04-02T05:49:02.260Z,1008.7
2023-04-02T05:50:02.115Z,1008.6
2023-04-02T05:51:02.183Z,1008.6
2023-04-02T05:52:02.251Z,1008.7
2023-04-02T05:53:02.026Z,1008.7
2023-04-02T05:54:02.081Z,1008.7
2023-04-02T05:55:01.898Z,1008.7
2023-04-02T05:56:01.972Z,1008.7
2023-04-02T05:57:01.955Z,1008.7
2023-04-02T05:58:37.133Z,1008.7
2023-04-02T05:59:01.938Z,1008.7
2023-04-02T06:00:03.074Z,1008.7
2023-04-02T06:01:01.906Z,1008.8
2023-04-02T06:02:02.322Z,1008.8
2023-04-02T06:03:02.479Z,1008.8
2023-04-02T06:04:02.506Z,1008.8
2023-04-02T06:05:02.212Z,1008.8
2023-04-02T06:06:02.247Z,1008.8
2023-04-02T06:07:02.219Z,1008.9
2023-04-02T06:08:02.065Z,1009
2023-04-02T06:09:02.113Z,1008.9
2023-04-02T06:10:02.040Z,1008.9
2023-04-02T06:11:02.109Z,1008.9
2023-04-02T06:12:01.931Z,1008.9
2023-04-02T06:13:01.999Z,1008.9
2023-04-02T06:14:01.912Z,1009
2023-04-02T06:15:01.954Z,1009
2023-04-02T06:16:01.739Z,1009
2023-04-02T06:17:02.046Z,1009
2023-04-02T06:18:02.116Z,1009.1
2023-04-02T06:19:01.833Z,1009.1
2023-04-02T06:20:01.904Z,1009.1
2023-04-02T06:21:01.755Z,1009.2
2023-04-02T06:22:01.829Z,1009.2
2023-04-02T06:23:01.701Z,1009.2
2023-04-02T06:24:02.782Z,1009.2
2023-04-02T06:25:02.599Z,1009.3
2023-04-02T06:26:02.661Z,1009.3
2023-04-02T06:27:02.522Z,1009.3
2023-04-02T06:28:02.577Z,1009.3
2023-04-02T06:29:02.484Z,1009.3
2023-04-02T06:30:02.557Z,1009.3
2023-04-02T06:31:02.515Z,1009.4
2023-04-02T06:33:01.955Z,1009.5
2023-04-02T06:34:01.689Z,1009.5
2023-04-02T06:35:01.781Z,1009.5
2023-04-02T06:36:01.796Z,1009.5
2023-04-02T06:37:02.714Z,1009.5
2023-04-02T06:38:02.551Z,1009.6
2023-04-02T06:39:02.640Z,1009.5
2023-04-02T06:40:02.482Z,1009.7
2023-04-02T06:41:02.553Z,1009.7
2023-04-02T06:42:02.406Z,1009.7
2023-04-02T06:43:02.443Z,1009.7
2023-04-02T06:44:02.428Z,1009.7
2023-04-02T06:45:02.314Z,1009.7
2023-04-02T06:46:02.441Z,1009.8
2023-04-02T06:47:02.326Z,1009.8
2023-04-02T06:48:02.309Z,1009.8
2023-04-02T06:49:02.196Z,1009.8
2023-04-02T06:50:02.024Z,1009.8
2023-04-02T06:51:02.079Z,1009.8
2023-04-02T06:52:01.871Z,1009.8
2023-04-02T06:53:01.917Z,1009.7
2023-04-02T06:54:01.829Z,1009.8
2023-04-02T06:55:01.992Z,1009.9
2023-04-02T06:56:01.631Z,1009.9
2023-04-02T06:57:02.743Z,1009.9
2023-04-02T06:58:02.529Z,1009.8
2023-04-02T06:59:02.654Z,1009.9
2023-04-02T07:00:02.521Z,1009.9
2023-04-02T07:01:02.624Z,1010
2023-04-02T07:03:01.850Z,1009.9
2023-04-02T07:04:02.672Z,1010
2023-04-02T07:05:02.877Z,1010
2023-04-02T07:06:02.696Z,1010
2023-04-02T07:07:02.558Z,1010.1
2023-04-02T07:08:02.613Z,1010.1
2023-04-02T07:09:02.481Z,1010
2023-04-02T07:10:02.518Z,1010.1
2023-04-02T07:11:02.402Z,1010.1
2023-04-02T07:12:02.470Z,1010.1
2023-04-02T07:13:02.448Z,1010.1
2023-04-02T07:14:02.260Z,1010.2
2023-04-02T07:15:02.311Z,1010.1
2023-04-02T07:16:02.758Z,1010.2
2023-04-02T07:17:02.530Z,1010.2
2023-04-02T07:18:02.779Z,1010.2
2023-04-02T07:19:02.480Z,1010.2
2023-04-02T07:20:02.565Z,1010.3
2023-04-02T07:21:02.396Z,1010.2
2023-04-02T07:22:02.491Z,1010.2
2023-04-02T07:23:02.346Z,1010.3
2023-04-02T07:24:02.392Z,1010.4
2023-04-02T07:25:02.363Z,1010.4
2023-04-02T07:26:02.173Z,1010.4
2023-04-02T07:27:02.228Z,1010.4
2023-04-02T07:28:02.239Z,1010.4
2023-04-02T07:29:02.079Z,1010.4
2023-04-02T07:30:02.101Z,1010.5
2023-04-02T07:31:02.107Z,1010.5
2023-04-02T07:32:02.126Z,1010.5
2023-04-02T07:33:02.544Z,1010.5
2023-04-02T07:34:02.423Z,1010.6
2023-04-02T07:35:02.179Z,1010.6
2023-04-02T07:36:02.262Z,1010.6
2023-04-02T07:37:02.031Z,1010.6
2023-04-02T07:38:02.088Z,1010.6
2023-04-02T07:39:01.966Z,1010.6
2023-04-02T07:40:01.997Z,1010.7
2023-04-02T07:41:01.817Z,1010.7
2023-04-02T07:42:01.891Z,1010.7
2023-04-02T07:43:01.762Z,1010.8
2023-04-02T07:44:01.860Z,1010.8
2023-04-02T07:45:06.387Z,1010.8
2023-04-02T07:46:02.050Z,1010.8
2023-04-02T07:47:02.377Z,1010.8
2023-04-02T07:48:02.296Z,1010.9
2023-04-02T07:49:02.027Z,1010.8
2023-04-02T07:50:02.149Z,1010.9
2023-04-02T07:51:01.957Z,1010.9
2023-04-02T07:52:01.936Z,1010.9
2023-04-02T07:53:01.807Z,1010.9
2023-04-02T07:54:01.850Z,1010.9
2023-04-02T07:55:01.804Z,1011
2023-04-02T07:56:01.824Z,1011
2023-04-02T07:57:01.718Z,1011
2023-04-02T07:58:02.711Z,1011.1
2023-04-02T07:59:02.549Z,1011
2023-04-02T08:00:03.265Z,1011.1
2023-04-02T08:01:02.338Z,1011.1
2023-04-02T08:02:02.630Z,1011.1
2023-04-02T08:03:02.888Z,1011.1
2023-04-02T08:04:02.939Z,1011.2
2023-04-02T08:05:01.776Z,1011.2
2023-04-02T08:06:02.736Z,1011.1
2023-04-02T08:07:02.595Z,1011.2
2023-04-02T08:08:02.472Z,1011.3
2023-04-02T08:09:02.387Z,1011.3
2023-04-02T08:10:02.539Z,1011.2
2023-04-02T08:11:02.651Z,1011.3
2023-04-02T08:12:02.490Z,1011.3
2023-04-02T08:13:02.394Z,1011.3
2023-04-02T08:14:02.388Z,1011.4
2023-04-02T08:15:02.324Z,1011.5
2023-04-02T08:16:02.192Z,1011.4
2023-04-02T08:17:02.766Z,1011.4
2023-04-02T08:18:02.709Z,1011.5
2023-04-02T08:19:02.407Z,1011.5
2023-04-02T08:20:02.481Z,1011.4
2023-04-02T08:21:02.427Z,1011.6
2023-04-02T08:22:02.282Z,1011.5
2023-04-02T08:23:02.355Z,1011.5
2023-04-02T08:24:02.336Z,1011.5
2023-04-02T08:25:02.133Z,1011.6
2023-04-02T08:26:02.162Z,1011.6
2023-04-02T08:27:02.034Z,1011.7
2023-04-02T08:28:02.075Z,1011.6
2023-04-02T08:29:01.937Z,1011.7
2023-04-02T08:30:02.047Z,1011.7
2023-04-02T08:31:01.971Z,1011.7
2023-04-02T08:32:02.193Z,1011.8
2023-04-02T08:33:02.329Z,1011.8
2023-04-02T08:34:02.249Z,1011.8
2023-04-02T08:35:02.079Z,1011.7
2023-04-02T08:36:02.240Z,1011.8
2023-04-02T08:37:01.942Z,1011.8
2023-04-02T08:38:02.030Z,1011.8
2023-04-02T08:39:01.942Z,1011.9
2023-04-02T08:40:02.108Z,1011.9
2023-04-02T08:41:01.852Z,1011.9
2023-04-02T08:42:01.928Z,1011.9
2023-04-02T08:43:01.768Z,1011.9
2023-04-02T08:44:01.886Z,1011.8
2023-04-02T08:45:25.566Z,1011.9
2023-04-02T08:46:01.781Z,1011.9
2023-04-02T08:47:01.719Z,1012
2023-04-02T08:48:01.880Z,1012
2023-04-02T08:49:02.655Z,1012
2023-04-02T08:50:02.541Z,1012
2023-04-02T08:51:02.589Z,1012
2023-04-02T08:52:02.505Z,1012
2023-04-02T08:53:02.587Z,1012
2023-04-02T08:54:02.458Z,1012.1
2023-04-02T08:55:02.513Z,1012.1
2023-04-02T08:56:02.396Z,1012.1
2023-04-02T08:57:02.512Z,1012
2023-04-02T08:58:02.353Z,1012.1
2023-04-02T08:59:02.276Z,1012.1
2023-04-02T09:00:02.972Z,1012.1
2023-04-02T09:01:01.811Z,1012.1
2023-04-02T09:02:02.534Z,1012.1
2023-04-02T09:03:02.419Z,1012.1
2023-04-02T09:04:02.257Z,1012.1
2023-04-02T09:05:02.255Z,1012.2
2023-04-02T09:06:02.194Z,1012.2
2023-04-02T09:07:02.016Z,1012.1
2023-04-02T09:08:02.102Z,1012.2
2023-04-02T09:09:01.960Z,1012.2
2023-04-02T09:10:01.967Z,1012.3
2023-04-02T09:11:01.822Z,1012.2
2023-04-02T09:12:01.923Z,1012.3
2023-04-02T09:13:01.781Z,1012.3
2023-04-02T09:14:01.866Z,1012.3
2023-04-02T09:15:01.683Z,1012.3
2023-04-02T09:16:02.926Z,1012.3
2023-04-02T09:18:01.855Z,1012.2
2023-04-02T09:19:01.637Z,1012.3
2023-04-02T09:20:02.725Z,1012.4
2023-04-02T09:21:02.548Z,1012.4
2023-04-02T09:22:02.629Z,1012.4
2023-04-02T09:23:02.554Z,1012.4
2023-04-02T09:24:05.508Z,1012.4
2023-04-02T09:25:02.211Z,1012.5
2023-04-02T09:26:05.492Z,1012.4
2023-04-02T09:27:02.237Z,1012.5
2023-04-02T09:28:02.101Z,1012.5
2023-04-02T09:29:02.184Z,1012.5
2023-04-02T09:30:02.097Z,1012.6
2023-04-02T09:31:02.141Z,1012.5
2023-04-02T09:32:02.491Z,1012.5
2023-04-02T09:33:02.492Z,1012.6
2023-04-02T09:34:02.331Z,1012.7
2023-04-02T09:35:25.906Z,1012.6
2023-04-02T09:36:02.365Z,1012.6
2023-04-02T09:37:02.198Z,1012.7
2023-04-02T09:38:02.091Z,1012.7
2023-04-02T09:39:02.123Z,1012.7
2023-04-02T09:40:01.949Z,1012.7
2023-04-02T09:41:02.035Z,1012.7
2023-04-02T09:42:06.510Z,1012.8
2023-04-02T09:43:02.175Z,1012.7
2023-04-02T09:44:02.335Z,1012.8
2023-04-02T09:45:02.040Z,1012.7
2023-04-02T09:46:02.044Z,1012.8
2023-04-02T09:47:01.893Z,1012.8
2023-04-02T09:48:01.834Z,1012.8
2023-04-02T09:49:02.759Z,1012.8
2023-04-02T09:50:02.616Z,1012.9
2023-04-02T09:51:02.663Z,1012.9
2023-04-02T09:52:02.527Z,1012.9
2023-04-02T09:53:02.566Z,1012.9
2023-04-02T09:54:02.465Z,1012.8
2023-04-02T09:55:02.495Z,1012.8
2023-04-02T09:56:02.444Z,1012.9
2023-04-02T09:57:02.327Z,1012.9
2023-04-02T09:58:02.544Z,1012.9
2023-04-02T09:59:02.313Z,1012.9
2023-04-02T10:00:02.115Z,1012.9
2023-04-02T10:01:02.360Z,1012.9
2023-04-02T10:02:02.311Z,1012.9
2023-04-02T10:03:02.242Z,1013
2023-04-02T10:04:02.239Z,1013
2023-04-02T10:05:01.935Z,1013.1
2023-04-02T10:06:02.013Z,1013
2023-04-02T10:07:01.883Z,1013
2023-04-02T10:08:01.868Z,1013
2023-04-02T10:09:01.725Z,1013.1
2023-04-02T10:10:01.754Z,1013
2023-04-02T10:11:02.729Z,1013.1
2023-04-02T10:12:02.653Z,1013.1
2023-04-02T10:13:02.717Z,1013.1
2023-04-02T10:14:02.524Z,1013.1
2023-04-02T10:15:02.583Z,1013.2
2023-04-02T10:16:02.449Z,1013.2
2023-04-02T10:17:02.473Z,1013.2
2023-04-02T10:18:02.564Z,1013.2
2023-04-02T10:19:02.349Z,1013.2
2023-04-02T10:20:02.219Z,1013.2
2023-04-02T10:21:02.280Z,1013.2
2023-04-02T10:22:02.106Z,1013.3
2023-04-02T10:23:02.522Z,1013.3
2023-04-02T10:24:01.989Z,1013.3
2023-04-02T10:25:02.048Z,1013.3
2023-04-02T10:26:01.966Z,1013.3
2023-04-02T10:27:01.939Z,1013.3
2023-04-02T10:28:01.775Z,1013.3
2023-04-02T10:29:01.845Z,1013.4
2023-04-02T10:30:01.757Z,1013.4
2023-04-02T10:31:01.873Z,1013.3
2023-04-02T10:32:01.756Z,1013.4
2023-04-02T10:33:01.898Z,1013.3
2023-04-02T10:34:01.623Z,1013.3
2023-04-02T10:35:02.703Z,1013.4
2023-04-02T10:36:02.768Z,1013.4
2023-04-02T10:37:02.604Z,1013.4
2023-04-02T10:38:02.482Z,1013.5
2023-04-02T10:39:02.523Z,1013.4
2023-04-02T10:40:02.489Z,1013.4
2023-04-02T10:41:02.616Z,1013.5
2023-04-02T10:42:02.458Z,1013.5
2023-04-02T10:43:02.525Z,1013.4
2023-04-02T10:44:20.857Z,1013.6
2023-04-02T10:45:01.660Z,1013.5
2023-04-02T10:46:01.815Z,1013.5
2023-04-02T10:47:01.809Z,1013.5
2023-04-02T10:48:02.038Z,1013.5
2023-04-02T10:49:02.000Z,1013.5
2023-04-02T10:50:01.882Z,1013.6
2023-04-02T10:51:01.652Z,1013.5
2023-04-02T10:52:02.741Z,1013.6
2023-04-02T10:53:02.611Z,1013.6
2023-04-02T10:54:02.685Z,1013.6
2023-04-02T10:55:02.514Z,1013.7
2023-04-02T10:56:02.560Z,1013.6
2023-04-02T10:57:02.516Z,1013.7
2023-04-02T10:58:02.448Z,1013.7
2023-04-02T10:59:02.380Z,1013.7
2023-04-02T11:00:02.325Z,1013.7
2023-04-02T11:01:02.317Z,1013.7
2023-04-02T11:02:02.570Z,1013.7
2023-04-02T11:03:02.770Z,1013.8
2023-04-02T11:04:02.693Z,1013.8
2023-04-02T11:05:02.902Z,1013.8
2023-04-02T11:06:01.886Z,1013.8
2023-04-02T11:07:15.211Z,1013.8
2023-04-02T11:08:01.976Z,1013.8
2023-04-02T11:09:01.875Z,1013.8
2023-04-02T11:10:01.754Z,1013.8
2023-04-02T11:11:05.060Z,1013.8
2023-04-02T11:12:01.726Z,1013.9
2023-04-02T11:13:01.762Z,1013.9
2023-04-02T11:14:02.727Z,1013.8
2023-04-02T11:15:02.658Z,1014
2023-04-02T11:16:01.843Z,1013.9
2023-04-02T11:17:01.797Z,1013.9
2023-04-02T11:18:02.081Z,1013.9
2023-04-02T11:19:01.717Z,1014
2023-04-02T11:20:01.769Z,1014
2023-04-02T11:21:02.687Z,1014.1
2023-04-02T11:22:07.199Z,1014.1
2023-04-02T11:23:02.010Z,1014
2023-04-02T11:24:01.913Z,1014.1
2023-04-02T11:25:01.732Z,1014
2023-04-02T11:26:01.769Z,1014.1
2023-04-02T11:27:02.711Z,1014.1
2023-04-02T11:28:02.549Z,1014.1
2023-04-02T11:29:02.640Z,1014.1
2023-04-02T11:30:02.541Z,1014.2
2023-04-02T11:31:02.805Z,1014.1
2023-04-02T11:33:02.834Z,1014.1
2023-04-02T11:34:02.568Z,1014.2
2023-04-02T11:35:08.159Z,1014.2
2023-04-02T11:36:01.949Z,1014.2
2023-04-02T11:37:01.893Z,1014.2
2023-04-02T11:38:01.750Z,1014.2
2023-04-02T11:39:17.943Z,1014.2
2023-04-02T11:40:02.687Z,1014.2
2023-04-02T11:41:02.583Z,1014.3
2023-04-02T11:42:02.669Z,1014.3
2023-04-02T11:43:02.533Z,1014.3
2023-04-02T11:44:02.641Z,1014.3
2023-04-02T11:45:02.468Z,1014.3
2023-04-02T11:46:02.621Z,1014.3
2023-04-02T11:47:02.595Z,1014.3
2023-04-02T11:48:03.260Z,1014.3
2023-04-02T11:49:02.165Z,1014.3
2023-04-02T11:50:02.454Z,1014.3
2023-04-02T11:51:02.358Z,1014.2
2023-04-02T11:52:13.071Z,1014.3
2023-04-02T11:53:01.731Z,1014.2
2023-04-02T11:54:01.772Z,1014.3
2023-04-02T11:55:01.636Z,1014.4
2023-04-02T11:56:02.651Z,1014.3
2023-04-02T11:57:02.585Z,1014.3
2023-04-02T11:58:02.607Z,1014.3
2023-04-02T11:59:02.553Z,1014.4
2023-04-02T12:00:03.090Z,1014.4
2023-04-02T12:01:02.053Z,1014.4
2023-04-02T12:02:02.366Z,1014.4
2023-04-02T12:03:02.389Z,1014.4
2023-04-02T12:04:02.296Z,1014.4
2023-04-02T12:05:02.242Z,1014.4
2023-04-02T12:06:04.721Z,1014.5
2023-04-02T12:07:02.486Z,1014.5
2023-04-02T12:08:02.340Z,1014.5
2023-04-02T12:09:02.389Z,1014.4
2023-04-02T12:10:02.389Z,1014.4
2023-04-02T12:11:02.188Z,1014.4
2023-04-02T12:12:02.266Z,1014.5
2023-04-02T12:13:02.245Z,1014.5
2023-04-02T12:14:02.061Z,1014.5
2023-04-02T12:15:02.079Z,1014.5
2023-04-02T12:16:01.912Z,1014.5
2023-04-02T12:17:01.912Z,1014.5
2023-04-02T12:18:01.891Z,1014.5
2023-04-02T12:19:01.747Z,1014.5
2023-04-02T12:20:06.085Z,1014.6
2023-04-02T12:21:01.727Z,1014.6
2023-04-02T12:22:01.809Z,1014.6
2023-04-02T12:23:01.676Z,1014.6
2023-04-02T12:24:01.713Z,1014.6
2023-04-02T12:25:02.652Z,1014.6
2023-04-02T12:26:02.545Z,1014.6
2023-04-02T12:27:02.630Z,1014.6
2023-04-02T12:28:02.456Z,1014.6
2023-04-02T12:29:02.555Z,1014.6
2023-04-02T12:30:02.385Z,1014.6
2023-04-02T12:31:02.651Z,1014.7
2023-04-02T12:32:02.389Z,1014.6
2023-04-02T12:33:02.572Z,1014.7
2023-04-02T12:34:02.468Z,1014.7
2023-04-02T12:35:02.242Z,1014.7
2023-04-02T12:36:02.369Z,1014.7
2023-04-02T12:37:02.213Z,1014.7
2023-04-02T12:38:02.023Z,1014.7
2023-04-02T12:39:02.077Z,1014.7
2023-04-02T12:40:01.990Z,1014.7
2023-04-02T12:41:02.065Z,1014.8
2023-04-02T12:42:01.902Z,1014.7
2023-04-02T12:43:01.950Z,1014.7
2023-04-02T12:44:01.813Z,1014.8
2023-04-02T12:45:01.900Z,1014.8
2023-04-02T12:46:01.853Z,1014.8
2023-04-02T12:47:01.935Z,1014.9
2023-04-02T12:48:02.197Z,1014.8